Terminal Aerodrome Forecast
Issued by NWS Albany, NY

Home | Current Version | Previous Version | Text Only | Print | Product List | Glossary On
Versions: 1 2 3 4 5 6 7 8 9 10 11 12 13 14 15 16 17 18 19 20 21 22 23 24 25 26
000
FTUS41 KALY 040555
TAFALB
TAF
KALB 040555Z 0406/0506 18015G25KT P6SM SCT015 OVC025
      TEMPO 0406/0409 5SM -FZDZ BR SCT008 OVC015
     FM040900 21014G24KT P6SM OVC025
      TEMPO 0409/0411 4SM -DZ BR OVC015
     FM041200 26010G22KT P6SM OVC025
     FM041500 27013G23KT P6SM SCT025 BKN050 OVC250
     FM041800 28010G20KT P6SM SCT050 SCT100 BKN250
     FM042300 29010KT P6SM BKN050 BKN100 BKN250=

USA.gov is the U.S. government's official web portal to all federal, state and local government web resources and services.